Time;durP1;ratioP1;P1;durP2;ratioP2;P2;SDS_P1;SDS_P2;PMS_P1;PMS_P2;Temp;Humidity;BMP_temperature;BMP_pressure;BME280_temperature;BME280_humidity;BME280_pressure;Samples;Min_cycle;Max_cycle;Signal;HPM_P1;HPM_P2
2023/12/27 00:01:30;;;;;;;17.73;9.80;;;6.70;99.90;;;;;;5116449;28;20254;-58
2023/12/27 00:03:55;;;;;;;16.60;9.02;;;6.80;99.90;;;;;;5116118;28;20284;-58
2023/12/27 00:06:21;;;;;;;18.90;9.48;;;6.80;99.90;;;;;;5116358;28;20239;-58
2023/12/27 00:08:47;;;;;;;16.75;9.43;;;6.80;99.90;;;;;;5116308;28;20483;-58
2023/12/27 00:11:19;;;;;;;16.23;8.38;;;6.80;99.90;;;;;;5116268;28;20204;-59
2023/12/27 00:13:45;;;;;;;14.73;7.75;;;6.80;99.90;;;;;;5116320;28;20165;-58
2023/12/27 00:16:10;;;;;;;16.90;8.20;;;6.90;99.90;;;;;;5116220;28;20179;-58
2023/12/27 00:18:36;;;;;;;16.80;8.82;;;6.80;99.90;;;;;;5116174;28;20180;-58
2023/12/27 00:21:02;;;;;;;17.80;8.90;;;6.90;99.90;;;;;;5116026;28;20169;-57
2023/12/27 00:23:28;;;;;;;15.38;8.48;;;6.90;99.90;;;;;;5116075;27;20281;-58
2023/12/27 00:25:54;;;;;;;18.33;9.25;;;7.00;99.90;;;;;;5115986;28;20184;-58
2023/12/27 00:28:20;;;;;;;20.35;8.63;;;6.90;99.90;;;;;;5116026;28;20673;-58
2023/12/27 00:30:48;;;;;;;16.20;8.77;;;6.80;99.90;;;;;;5115610;28;20165;-58
2023/12/27 00:33:15;;;;;;;18.17;9.02;;;6.70;99.90;;;;;;5116095;28;20181;-58
2023/12/27 00:35:41;;;;;;;17.33;8.38;;;6.70;99.90;;;;;;5115512;28;20238;-58
2023/12/27 00:38:07;;;;;;;18.95;8.98;;;6.70;99.90;;;;;;5115805;28;20172;-59
2023/12/27 00:40:32;;;;;;;19.48;9.60;;;6.80;99.90;;;;;;5115632;28;20169;-58
2023/12/27 00:42:58;;;;;;;16.23;8.75;;;6.80;99.90;;;;;;5115316;28;20588;-58
2023/12/27 00:45:24;;;;;;;17.20;8.63;;;6.70;99.90;;;;;;5115646;28;20226;-58
2023/12/27 00:47:49;;;;;;;21.17;9.85;;;6.70;99.90;;;;;;5115822;28;20169;-56
2023/12/27 00:50:15;;;;;;;15.13;8.77;;;6.70;99.90;;;;;;5115498;28;20605;-58
2023/12/27 00:52:41;;;;;;;16.90;8.70;;;6.70;99.90;;;;;;5115504;28;20175;-58
2023/12/27 00:55:07;;;;;;;16.70;8.93;;;6.70;99.90;;;;;;5115462;28;20198;-58
2023/12/27 00:57:33;;;;;;;19.40;9.98;;;6.60;99.90;;;;;;5115371;28;20242;-58
2023/12/27 00:59:59;;;;;;;19.33;9.48;;;6.70;99.90;;;;;;5115309;28;20176;-58
2023/12/27 01:02:25;;;;;;;16.70;8.85;;;6.80;99.90;;;;;;5115183;27;20261;-59
2023/12/27 01:04:52;;;;;;;21.40;9.90;;;6.80;99.90;;;;;;5114980;28;20645;-58
2023/12/27 01:07:20;;;;;;;18.08;9.98;;;6.90;99.90;;;;;;5115169;28;20518;-55
2023/12/27 01:09:46;;;;;;;13.75;8.82;;;6.80;99.90;;;;;;5115089;28;20172;-56
2023/12/27 01:12:11;;;;;;;21.38;10.13;;;6.90;99.90;;;;;;5115079;28;20177;-58
2023/12/27 01:14:37;;;;;;;16.17;8.52;;;6.90;99.90;;;;;;5114832;28;20204;-58
2023/12/27 01:17:03;;;;;;;14.52;8.25;;;7.00;99.90;;;;;;5114315;28;20176;-59
2023/12/27 01:19:28;;;;;;;19.23;9.77;;;6.90;99.90;;;;;;5114965;28;20171;-58
2023/12/27 01:21:54;;;;;;;19.73;8.50;;;6.90;99.90;;;;;;5114798;28;20659;-56
2023/12/27 01:24:20;;;;;;;18.10;9.30;;;7.00;99.90;;;;;;5114892;28;20609;-56
2023/12/27 01:26:45;;;;;;;17.35;8.85;;;7.10;99.90;;;;;;5114815;28;20165;-58
2023/12/27 01:29:11;;;;;;;24.20;10.23;;;7.20;99.90;;;;;;5114746;28;20218;-58
2023/12/27 01:31:37;;;;;;;18.88;8.95;;;7.10;99.90;;;;;;5114774;28;20172;-58
2023/12/27 01:34:02;;;;;;;18.17;9.65;;;7.10;99.90;;;;;;5114440;28;20173;-56
2023/12/27 01:36:28;;;;;;;20.30;9.55;;;7.10;99.90;;;;;;5114647;28;20550;-55
2023/12/27 01:38:53;;;;;;;18.38;9.40;;;7.10;99.90;;;;;;5114614;28;20181;-58
2023/12/27 01:41:19;;;;;;;17.20;8.90;;;7.00;99.90;;;;;;5114570;28;20259;-57
2023/12/27 01:43:45;;;;;;;18.55;9.48;;;7.00;99.90;;;;;;5114433;28;20212;-58
2023/12/27 01:46:11;;;;;;;15.88;8.85;;;7.10;99.90;;;;;;5113230;28;20183;-59
2023/12/27 01:48:40;;;;;;;17.60;8.73;;;7.00;99.90;;;;;;5114521;28;20169;-58
2023/12/27 01:51:06;;;;;;;16.60;8.50;;;7.00;99.90;;;;;;5114417;28;20184;-58
2023/12/27 01:53:32;;;;;;;19.75;9.25;;;7.10;99.90;;;;;;5114405;28;20174;-58
2023/12/27 01:55:58;;;;;;;15.80;9.02;;;7.10;99.90;;;;;;5114002;28;20181;-58
2023/12/27 01:58:26;;;;;;;22.73;11.48;;;7.00;99.90;;;;;;5114324;28;20217;-57
2023/12/27 02:00:52;;;;;;;19.95;9.85;;;7.00;99.90;;;;;;5114256;28;20621;-58
2023/12/27 02:03:18;;;;;;;32.08;16.23;;;7.10;99.90;;;;;;5114207;28;20215;-57
2023/12/27 02:05:45;;;;;;;26.02;12.07;;;7.20;99.90;;;;;;5114139;28;20257;-58
2023/12/27 02:08:13;;;;;;;25.23;12.13;;;7.20;99.90;;;;;;5114229;28;20177;-58
2023/12/27 02:10:40;;;;;;;27.45;12.68;;;7.20;99.90;;;;;;5114158;28;20157;-58
2023/12/27 02:13:06;;;;;;;24.77;13.27;;;7.30;99.90;;;;;;5114154;28;20260;-57
2023/12/27 02:15:33;;;;;;;15.68;8.80;;;7.20;99.90;;;;;;5114135;28;20171;-58
2023/12/27 02:18:00;;;;;;;19.30;9.60;;;7.30;99.90;;;;;;5113853;28;20652;-58
2023/12/27 02:20:26;;;;;;;21.00;9.15;;;7.40;99.90;;;;;;5114242;28;20172;-58
2023/12/27 02:22:54;;;;;;;23.67;8.98;;;7.40;99.90;;;;;;5113676;28;20270;-58
2023/12/27 02:25:20;;;;;;;18.27;8.75;;;7.40;99.90;;;;;;5113767;28;20251;-58
2023/12/27 02:27:46;;;;;;;16.75;7.82;;;7.40;99.90;;;;;;5116194;28;20167;-58
2023/12/27 02:30:19;;;;;;;19.90;9.07;;;7.40;99.90;;;;;;5118295;28;20168;-58
2023/12/27 02:32:48;;;;;;;15.60;7.85;;;7.40;99.90;;;;;;5118259;28;20173;-57
2023/12/27 02:35:15;;;;;;;17.73;8.32;;;7.50;99.90;;;;;;5118174;28;20169;-56
2023/12/27 02:37:41;;;;;;;18.67;8.68;;;7.40;99.90;;;;;;5118162;28;20169;-58
2023/12/27 02:40:08;;;;;;;13.65;7.50;;;7.50;99.90;;;;;;5118090;27;20266;-56
2023/12/27 02:42:37;;;;;;;17.48;8.80;;;7.60;99.90;;;;;;5117944;28;20550;-58
2023/12/27 02:45:04;;;;;;;15.32;8.07;;;7.50;99.90;;;;;;5118021;28;20192;-58
2023/12/27 02:47:30;;;;;;;13.70;8.15;;;7.50;99.90;;;;;;5116731;28;20578;-57
2023/12/27 02:49:55;;;;;;;18.13;8.10;;;7.60;99.90;;;;;;5117924;28;20229;-58
2023/12/27 02:52:21;;;;;;;18.42;8.32;;;7.60;99.90;;;;;;5117725;28;20225;-56
2023/12/27 02:54:47;;;;;;;21.33;8.90;;;7.60;99.90;;;;;;5117463;28;20171;-57
2023/12/27 02:57:13;;;;;;;18.48;8.48;;;7.60;99.90;;;;;;5117780;28;20171;-58
2023/12/27 02:59:39;;;;;;;17.08;8.25;;;7.40;99.90;;;;;;5117667;28;20176;-57
2023/12/27 03:02:04;;;;;;;18.83;8.60;;;7.40;99.90;;;;;;5117479;28;20211;-56
2023/12/27 03:04:30;;;;;;;16.05;7.82;;;7.50;99.90;;;;;;5117657;28;20168;-57
2023/12/27 03:06:56;;;;;;;14.88;8.05;;;7.50;99.90;;;;;;5117475;28;20217;-58
2023/12/27 03:09:21;;;;;;;13.55;7.75;;;7.50;99.90;;;;;;5117570;28;20169;-58
2023/12/27 03:11:47;;;;;;;15.68;7.72;;;7.50;99.90;;;;;;5117465;28;20617;-58
2023/12/27 03:14:13;;;;;;;17.40;7.72;;;7.50;99.90;;;;;;5117619;28;20169;-58
2023/12/27 03:16:39;;;;;;;17.20;8.20;;;7.50;99.90;;;;;;5117134;28;20169;-58
2023/12/27 03:19:05;;;;;;;14.80;7.38;;;7.50;99.90;;;;;;5117344;28;20227;-57
2023/12/27 03:21:30;;;;;;;18.73;7.68;;;7.60;99.90;;;;;;5116958;28;20286;-58
2023/12/27 03:23:56;;;;;;;11.10;6.57;;;7.50;99.90;;;;;;5117045;28;20157;-59
2023/12/27 03:26:22;;;;;;;14.48;7.72;;;7.50;99.90;;;;;;5117191;28;20173;-57
2023/12/27 03:28:47;;;;;;;17.52;7.68;;;7.60;99.90;;;;;;5117174;28;20170;-58
2023/12/27 03:31:13;;;;;;;17.73;7.03;;;7.60;99.90;;;;;;5116778;28;20180;-57
2023/12/27 03:33:39;;;;;;;13.82;6.65;;;7.70;99.90;;;;;;5117186;28;20306;-56
2023/12/27 03:36:05;;;;;;;12.25;7.13;;;7.70;99.90;;;;;;5117030;28;20172;-57
2023/12/27 03:38:30;;;;;;;15.02;7.03;;;7.70;99.90;;;;;;5115949;28;20173;-57
2023/12/27 03:40:56;;;;;;;18.33;7.72;;;7.80;99.90;;;;;;5116637;28;20258;-57
2023/12/27 03:43:22;;;;;;;17.73;7.38;;;7.70;99.90;;;;;;5117129;28;20282;-57
2023/12/27 03:45:50;;;;;;;15.27;6.82;;;7.70;99.90;;;;;;5117061;28;20169;-57
2023/12/27 03:48:16;;;;;;;14.48;7.55;;;7.80;99.90;;;;;;5116781;28;20179;-56
2023/12/27 03:50:41;;;;;;;16.88;7.50;;;7.80;99.90;;;;;;5116729;28;20172;-57
2023/12/27 03:53:07;;;;;;;14.40;7.60;;;7.80;99.90;;;;;;5117098;28;20175;-58
2023/12/27 03:55:33;;;;;;;13.70;8.00;;;7.80;99.90;;;;;;5116581;28;20254;-57
2023/12/27 03:57:59;;;;;;;17.27;7.80;;;7.70;99.90;;;;;;5116885;28;20567;-57
2023/12/27 04:00:25;;;;;;;17.10;8.30;;;7.80;99.90;;;;;;5116536;28;20164;-58
2023/12/27 04:02:51;;;;;;;15.38;8.52;;;7.80;99.90;;;;;;5116382;28;20287;-57
2023/12/27 04:05:17;;;;;;;15.68;7.78;;;7.90;99.90;;;;;;5116422;28;20264;-57
2023/12/27 04:07:43;;;;;;;15.38;8.55;;;7.90;99.90;;;;;;5116373;28;20169;-57
2023/12/27 04:10:08;;;;;;;15.48;9.18;;;7.90;99.90;;;;;;5116333;28;20176;-56
2023/12/27 04:12:35;;;;;;;13.77;8.07;;;7.90;99.90;;;;;;5116337;28;20563;-57
2023/12/27 04:15:00;;;;;;;15.95;8.77;;;7.90;99.90;;;;;;5116253;28;20185;-56
2023/12/27 04:17:26;;;;;;;15.60;8.57;;;8.00;99.90;;;;;;5116224;28;20510;-56
2023/12/27 04:19:53;;;;;;;15.32;8.07;;;8.00;99.90;;;;;;5116304;28;20195;-56
2023/12/27 04:22:19;;;;;;;16.77;8.68;;;8.10;99.90;;;;;;5115954;28;20240;-57
2023/12/27 04:24:45;;;;;;;12.60;8.60;;;8.10;99.90;;;;;;5116054;28;20218;-58
2023/12/27 04:27:11;;;;;;;13.00;8.40;;;8.10;99.90;;;;;;5116016;28;20177;-57
2023/12/27 04:29:36;;;;;;;11.25;8.35;;;8.20;99.90;;;;;;5116028;28;20669;-57
2023/12/27 04:32:02;;;;;;;14.02;8.40;;;8.20;99.90;;;;;;5115894;28;20169;-57
2023/12/27 04:34:28;;;;;;;19.48;9.73;;;8.20;99.90;;;;;;5115822;28;20595;-57
2023/12/27 04:36:54;;;;;;;15.10;9.45;;;8.20;99.90;;;;;;5115851;28;20196;-56
2023/12/27 04:39:19;;;;;;;18.13;10.00;;;8.20;99.90;;;;;;5116099;28;20173;-57
2023/12/27 04:41:45;;;;;;;16.17;9.07;;;8.20;99.90;;;;;;5115584;28;20169;-57
2023/12/27 04:44:11;;;;;;;17.08;10.27;;;8.20;99.90;;;;;;5115742;28;20602;-57
2023/12/27 04:46:36;;;;;;;16.67;9.85;;;8.30;99.90;;;;;;5115611;28;20174;-57
2023/12/27 04:49:04;;;;;;;12.25;8.57;;;8.30;99.90;;;;;;5115581;28;20210;-57
2023/12/27 04:51:30;;;;;;;16.45;9.13;;;8.30;99.90;;;;;;5114436;28;20170;-57
2023/12/27 04:53:56;;;;;;;17.90;10.10;;;8.30;99.90;;;;;;5115538;28;20165;-57
2023/12/27 04:56:22;;;;;;;18.02;10.65;;;8.40;99.90;;;;;;5115729;28;20166;-58
2023/12/27 04:58:48;;;;;;;18.27;9.88;;;8.40;99.90;;;;;;5115183;28;20188;-57
2023/12/27 05:01:15;;;;;;;17.25;9.75;;;8.50;99.90;;;;;;5115400;28;20169;-58
2023/12/27 05:03:41;;;;;;;17.38;10.75;;;8.50;99.90;;;;;;5115137;28;20226;-58
2023/12/27 05:06:10;;;;;;;14.15;9.70;;;8.50;99.90;;;;;;5115269;28;20161;-57
2023/12/27 05:08:41;;;;;;;14.25;10.27;;;8.40;99.90;;;;;;5115251;28;20298;-57
2023/12/27 05:11:21;;;;;;;16.38;10.70;;;8.40;99.90;;;;;;5114962;28;20209;-57
2023/12/27 05:13:47;;;;;;;18.00;10.25;;;8.50;99.90;;;;;;5115198;28;20161;-57
2023/12/27 05:16:17;;;;;;;17.60;9.98;;;8.50;99.90;;;;;;5115091;28;20174;-57
2023/12/27 05:18:44;;;;;;;19.13;11.02;;;8.60;99.90;;;;;;5115040;28;20290;-56
2023/12/27 05:21:11;;;;;;;20.75;10.18;;;8.60;99.90;;;;;;5115053;28;20215;-57
2023/12/27 05:23:37;;;;;;;14.98;10.55;;;8.60;99.90;;;;;;5114374;28;20232;-57
2023/12/27 05:26:03;;;;;;;16.92;10.70;;;8.60;99.90;;;;;;5114848;28;20170;-57
2023/12/27 05:28:29;;;;;;;15.43;10.27;;;8.60;99.90;;;;;;5114552;28;20622;-56
2023/12/27 05:30:55;;;;;;;18.92;10.60;;;8.70;99.90;;;;;;5114759;28;20206;-57
2023/12/27 05:33:21;;;;;;;14.80;10.70;;;8.70;99.90;;;;;;5114713;28;20645;-57
2023/12/27 05:35:47;;;;;;;16.55;10.57;;;8.70;99.90;;;;;;5114708;28;20226;-56
2023/12/27 05:38:12;;;;;;;15.15;9.85;;;8.70;99.90;;;;;;5114675;28;20176;-57
2023/12/27 05:40:38;;;;;;;15.35;9.43;;;8.70;99.90;;;;;;5114672;28;20169;-57
2023/12/27 05:43:04;;;;;;;12.52;9.10;;;8.80;99.90;;;;;;5113037;28;20211;-56
2023/12/27 05:45:30;;;;;;;12.23;9.13;;;8.80;99.90;;;;;;5114585;28;20262;-57
2023/12/27 05:47:55;;;;;;;13.30;9.77;;;8.90;99.90;;;;;;5114514;28;20303;-57
2023/12/27 05:50:21;;;;;;;13.80;10.30;;;8.90;99.90;;;;;;5114706;28;20173;-58
2023/12/27 05:52:47;;;;;;;14.25;9.73;;;8.90;99.90;;;;;;5114085;28;20177;-57
2023/12/27 05:55:13;;;;;;;13.60;9.30;;;9.00;99.90;;;;;;5114357;28;20480;-55
2023/12/27 05:57:39;;;;;;;10.80;8.82;;;9.00;99.90;;;;;;5114403;28;20509;-58
2023/12/27 06:00:06;;;;;;;12.55;9.27;;;9.00;99.90;;;;;;5114337;28;20165;-57
2023/12/27 06:02:32;;;;;;;11.30;8.02;;;9.10;99.90;;;;;;5113837;28;20225;-57
2023/12/27 06:04:58;;;;;;;10.63;7.47;;;9.10;99.90;;;;;;5114297;28;20197;-57
2023/12/27 06:07:24;;;;;;;10.98;8.63;;;9.10;99.90;;;;;;5114184;28;20665;-57
2023/12/27 06:09:50;;;;;;;12.75;9.55;;;9.10;99.90;;;;;;5113876;28;20169;-57
2023/12/27 06:12:16;;;;;;;13.93;9.98;;;9.10;99.90;;;;;;5114193;28;20169;-56
2023/12/27 06:14:42;;;;;;;11.23;8.52;;;9.10;99.90;;;;;;5114263;28;20165;-57
2023/12/27 06:17:07;;;;;;;10.88;8.27;;;9.10;99.90;;;;;;5114205;28;20634;-56
2023/12/27 06:19:36;;;;;;;9.63;7.78;;;9.20;99.90;;;;;;5114043;28;20169;-56
2023/12/27 06:22:02;;;;;;;9.50;7.47;;;9.20;99.90;;;;;;5113860;28;20221;-59
2023/12/27 06:24:30;;;;;;;8.00;7.05;;;9.30;99.90;;;;;;5114127;28;20197;-58
2023/12/27 06:26:55;;;;;;;8.98;7.43;;;9.30;99.90;;;;;;5113994;28;20645;-58
2023/12/27 06:29:21;;;;;;;8.13;6.95;;;9.40;99.90;;;;;;5113993;28;20173;-58
2023/12/27 06:31:47;;;;;;;7.88;6.28;;;9.40;99.90;;;;;;5114120;28;20173;-58
2023/12/27 06:34:12;;;;;;;9.45;6.85;;;9.40;99.90;;;;;;5113694;28;20177;-58
2023/12/27 06:36:39;;;;;;;10.60;6.63;;;9.30;99.90;;;;;;5113522;28;20169;-58
2023/12/27 06:39:06;;;;;;;8.98;6.95;;;9.40;99.90;;;;;;5113311;28;20181;-57
2023/12/27 06:41:33;;;;;;;8.82;6.93;;;9.50;99.90;;;;;;5113267;28;20214;-58
2023/12/27 06:43:59;;;;;;;7.75;6.43;;;9.50;99.90;;;;;;5110559;28;20600;-58
2023/12/27 06:46:25;;;;;;;7.97;6.32;;;9.40;99.90;;;;;;5113111;28;20173;-58
2023/12/27 06:48:51;;;;;;;8.55;6.40;;;9.40;99.90;;;;;;5110124;28;20181;-58
2023/12/27 06:51:17;;;;;;;8.05;6.00;;;9.40;99.90;;;;;;5113088;28;20665;-58
2023/12/27 06:53:42;;;;;;;8.50;6.60;;;9.50;99.90;;;;;;5112020;28;20173;-61
2023/12/27 06:56:09;;;;;;;7.88;6.97;;;9.50;99.90;;;;;;5112536;28;20169;-58
2023/12/27 06:58:35;;;;;;;6.80;6.10;;;9.50;99.90;;;;;;5111538;28;20646;-58
2023/12/27 07:01:01;;;;;;;7.20;6.05;;;9.60;99.90;;;;;;5109317;28;20192;-58
2023/12/27 07:03:27;;;;;;;9.93;5.43;;;9.60;99.90;;;;;;5111590;28;20197;-58
2023/12/27 07:05:52;;;;;;;9.52;5.55;;;9.60;99.90;;;;;;5113235;28;20231;-58
2023/12/27 07:08:18;;;;;;;6.65;5.93;;;9.60;99.90;;;;;;5113384;28;20176;-58
2023/12/27 07:10:44;;;;;;;6.45;5.60;;;9.60;99.90;;;;;;5113366;28;20529;-58
2023/12/27 07:13:09;;;;;;;6.60;5.63;;;9.60;99.90;;;;;;5112414;28;20189;-58
2023/12/27 07:15:35;;;;;;;9.05;5.85;;;9.60;99.90;;;;;;5116597;28;20185;-58
2023/12/27 07:18:01;;;;;;;6.65;5.88;;;9.70;99.90;;;;;;5117253;28;20170;-58
2023/12/27 07:20:27;;;;;;;7.00;5.50;;;9.70;99.90;;;;;;5117095;28;20190;-58
2023/12/27 07:22:53;;;;;;;8.20;5.78;;;9.80;99.90;;;;;;5117065;28;20221;-58
2023/12/27 07:25:19;;;;;;;7.85;5.57;;;9.70;99.90;;;;;;5117162;28;20356;-58
2023/12/27 07:27:45;;;;;;;9.25;5.18;;;9.80;99.90;;;;;;5117056;28;20231;-58
2023/12/27 07:30:11;;;;;;;7.75;5.22;;;9.80;99.90;;;;;;5116873;28;20166;-58
2023/12/27 07:32:36;;;;;;;6.55;5.03;;;9.70;99.90;;;;;;5117215;28;20210;-58
2023/12/27 07:35:04;;;;;;;8.93;5.13;;;9.70;99.90;;;;;;5116724;28;20177;-59
2023/12/27 07:37:30;;;;;;;8.70;5.28;;;9.80;99.90;;;;;;5116652;28;20626;-58
2023/12/27 07:39:56;;;;;;;7.40;4.93;;;9.80;99.90;;;;;;5116808;28;20303;-58
2023/12/27 07:42:22;;;;;;;7.57;4.80;;;9.80;99.90;;;;;;5116281;27;20236;-59
2023/12/27 07:44:48;;;;;;;7.63;5.13;;;9.90;99.90;;;;;;5117077;28;20212;-58
2023/12/27 07:47:14;;;;;;;7.72;4.97;;;9.90;99.90;;;;;;5116854;28;20173;-58
2023/12/27 07:49:40;;;;;;;13.48;5.45;;;9.90;99.90;;;;;;5114840;28;20196;-58
2023/12/27 07:52:05;;;;;;;9.13;4.93;;;9.90;99.90;;;;;;5116400;28;20630;-58
2023/12/27 07:54:31;;;;;;;6.22;4.68;;;10.00;99.90;;;;;;5116383;28;20181;-58
2023/12/27 07:56:57;;;;;;;8.43;5.07;;;10.00;99.90;;;;;;5116571;28;20173;-58
2023/12/27 07:59:23;;;;;;;7.40;4.90;;;9.90;99.90;;;;;;5116554;28;20170;-59
2023/12/27 08:01:49;;;;;;;8.00;5.25;;;9.90;99.90;;;;;;5116374;28;20226;-59
2023/12/27 08:04:14;;;;;;;7.75;4.65;;;10.00;99.90;;;;;;5116161;28;20203;-58
2023/12/27 08:06:40;;;;;;;8.88;5.00;;;10.00;99.90;;;;;;5116293;28;20693;-59
2023/12/27 08:09:06;;;;;;;5.30;4.55;;;10.00;99.90;;;;;;5116293;28;20532;-60
2023/12/27 08:11:31;;;;;;;7.07;4.88;;;10.00;99.90;;;;;;5116316;28;20169;-58
2023/12/27 08:13:57;;;;;;;9.00;4.97;;;10.00;99.90;;;;;;5116175;28;20216;-60
2023/12/27 08:16:24;;;;;;;8.35;4.90;;;9.90;99.90;;;;;;5115909;28;20571;-58
2023/12/27 08:18:50;;;;;;;10.93;4.57;;;9.90;99.90;;;;;;5116091;28;20312;-58
2023/12/27 08:21:16;;;;;;;6.82;4.07;;;9.90;99.90;;;;;;5116225;28;20207;-60
2023/12/27 08:23:42;;;;;;;7.72;4.32;;;10.00;99.90;;;;;;5116110;28;20221;-58
2023/12/27 08:26:08;;;;;;;5.97;4.40;;;10.00;99.90;;;;;;5115825;28;20252;-58
2023/12/27 08:28:36;;;;;;;6.28;4.43;;;10.00;99.90;;;;;;5115676;28;20172;-58
2023/12/27 08:31:06;;;;;;;7.43;4.30;;;10.00;99.90;;;;;;5115931;28;20176;-57
2023/12/27 08:33:35;;;;;;;7.40;4.38;;;10.00;99.90;;;;;;5115831;28;20181;-57
2023/12/27 08:36:01;;;;;;;7.82;4.07;;;10.10;99.90;;;;;;5115768;28;20170;-59
2023/12/27 08:38:27;;;;;;;8.20;4.38;;;10.10;99.90;;;;;;5115743;28;20516;-56
2023/12/27 08:40:53;;;;;;;7.60;4.40;;;10.10;99.90;;;;;;5115451;28;20181;-59
2023/12/27 08:43:19;;;;;;;8.45;4.30;;;10.00;99.90;;;;;;5115243;28;20569;-59
2023/12/27 08:45:46;;;;;;;6.55;3.70;;;10.00;99.90;;;;;;5115653;28;20177;-59
2023/12/27 08:48:12;;;;;;;11.27;4.65;;;10.10;99.90;;;;;;5115467;28;20279;-59
2023/12/27 08:50:40;;;;;;;6.68;4.03;;;10.10;99.90;;;;;;5115712;28;20169;-59
2023/12/27 08:53:06;;;;;;;8.32;4.20;;;10.00;99.90;;;;;;5115386;28;20276;-57
2023/12/27 08:55:32;;;;;;;10.85;3.85;;;10.10;99.90;;;;;;5115567;28;20614;-59
2023/12/27 08:57:58;;;;;;;7.68;4.05;;;10.10;99.90;;;;;;5115362;28;20207;-58
2023/12/27 09:00:24;;;;;;;6.60;3.92;;;10.10;99.90;;;;;;5115389;28;20251;-57
2023/12/27 09:02:49;;;;;;;7.95;4.00;;;10.10;99.90;;;;;;5114970;28;20243;-56
2023/12/27 09:05:15;;;;;;;7.85;4.35;;;10.00;99.90;;;;;;5115213;28;20176;-59
2023/12/27 09:07:41;;;;;;;7.78;4.03;;;10.00;99.90;;;;;;5115212;28;20180;-56
2023/12/27 09:10:06;;;;;;;9.23;4.60;;;10.00;99.90;;;;;;5115073;28;20527;-55
2023/12/27 09:12:32;;;;;;;11.43;4.57;;;10.10;99.90;;;;;;5115043;28;20230;-57
2023/12/27 09:14:58;;;;;;;10.98;4.63;;;10.10;99.90;;;;;;5114769;28;20176;-59
2023/12/27 09:17:23;;;;;;;7.60;4.32;;;10.20;99.90;;;;;;5115065;28;20179;-57
2023/12/27 09:19:49;;;;;;;7.03;4.35;;;10.10;99.90;;;;;;5114955;28;20165;-56
2023/12/27 09:22:15;;;;;;;7.88;4.18;;;10.10;99.90;;;;;;5114739;28;20228;-58
2023/12/27 09:24:43;;;;;;;11.88;4.55;;;10.10;99.90;;;;;;5114627;28;20197;-59
2023/12/27 09:27:13;;;;;;;9.43;4.45;;;10.20;99.90;;;;;;5113511;28;20534;-56
2023/12/27 09:29:39;;;;;;;8.07;4.40;;;10.10;99.90;;;;;;5113611;28;20193;-59
2023/12/27 09:32:05;;;;;;;7.07;4.40;;;10.10;99.90;;;;;;5114409;28;20185;-57
2023/12/27 09:34:30;;;;;;;11.27;4.75;;;10.10;99.90;;;;;;5114764;28;20165;-57
2023/12/27 09:36:56;;;;;;;5.80;4.00;;;10.10;99.90;;;;;;5113668;28;20200;-57
2023/12/27 09:39:22;;;;;;;9.65;5.22;;;10.10;99.90;;;;;;5113813;28;20217;-57
2023/12/27 09:41:48;;;;;;;6.65;4.53;;;10.20;99.90;;;;;;5113648;28;20530;-57
2023/12/27 09:44:18;;;;;;;8.60;4.60;;;10.30;99.90;;;;;;5113650;28;20216;-57
2023/12/27 09:46:44;;;;;;;7.93;4.95;;;10.30;99.90;;;;;;5113620;28;20162;-57
2023/12/27 09:49:11;;;;;;;6.55;4.28;;;10.40;99.90;;;;;;5113368;28;20173;-58
2023/12/27 09:51:39;;;;;;;8.77;4.85;;;10.30;99.90;;;;;;5113575;28;20174;-57
2023/12/27 09:54:05;;;;;;;9.50;4.63;;;10.40;99.90;;;;;;5113520;28;20177;-57
2023/12/27 09:56:31;;;;;;;9.52;4.88;;;10.40;99.90;;;;;;5113487;28;20238;-57
2023/12/27 09:59:06;;;;;;;9.98;4.82;;;10.30;99.90;;;;;;5113336;28;20659;-58
2023/12/27 10:01:37;;;;;;;9.10;4.93;;;10.40;99.90;;;;;;5113479;28;20258;-57
2023/12/27 10:04:11;;;;;;;9.85;5.20;;;10.30;99.90;;;;;;5112967;28;20212;-58
2023/12/27 10:06:48;;;;;;;11.45;5.20;;;10.30;99.90;;;;;;5113913;28;20152;-58
2023/12/27 10:09:14;;;;;;;7.07;5.13;;;10.30;99.90;;;;;;5113239;28;20564;-58
2023/12/27 10:11:43;;;;;;;10.30;4.70;;;10.40;99.90;;;;;;5113281;28;20169;-58
2023/12/27 10:14:10;;;;;;;5.97;4.82;;;10.30;99.90;;;;;;5112890;28;20173;-58
2023/12/27 10:16:36;;;;;;;8.93;5.03;;;10.40;99.90;;;;;;5113468;28;20162;-57
2023/12/27 10:19:04;;;;;;;7.53;4.80;;;10.40;99.90;;;;;;5113247;28;20169;-58
2023/12/27 10:21:43;;;;;;;6.70;4.57;;;10.50;99.90;;;;;;5112629;28;20678;-57
2023/12/27 10:24:12;;;;;;;7.28;4.22;;;10.60;99.90;;;;;;5113128;28;20197;-58
2023/12/27 10:26:38;;;;;;;8.15;4.95;;;10.60;99.90;;;;;;5112788;28;20173;-58
2023/12/27 10:29:05;;;;;;;5.63;4.18;;;10.50;99.90;;;;;;5113057;28;20527;-57
2023/12/27 10:31:31;;;;;;;7.90;4.32;;;10.40;99.90;;;;;;5113060;28;20286;-58
2023/12/27 10:34:02;;;;;;;7.78;4.70;;;10.40;99.90;;;;;;5113134;28;20543;-58
2023/12/27 10:36:28;;;;;;;7.35;4.47;;;10.40;99.90;;;;;;5113153;28;20256;-57
2023/12/27 10:38:56;;;;;;;7.28;4.63;;;10.50;99.90;;;;;;5113074;28;20166;-57
2023/12/27 10:41:22;;;;;;;8.73;4.60;;;10.60;99.90;;;;;;5113303;28;20185;-58
2023/12/27 10:43:50;;;;;;;7.15;4.50;;;10.60;99.90;;;;;;5112653;28;20296;-58
2023/12/27 10:46:17;;;;;;;8.07;5.15;;;10.70;99.90;;;;;;5112864;28;20185;-58
2023/12/27 10:48:45;;;;;;;7.32;4.30;;;10.70;99.90;;;;;;5112942;28;20690;-57
2023/12/27 10:51:13;;;;;;;8.82;4.93;;;10.60;99.90;;;;;;5117024;28;20260;-57
2023/12/27 10:53:43;;;;;;;10.68;4.70;;;10.60;99.90;;;;;;5116934;28;20174;-57
2023/12/27 10:56:10;;;;;;;8.20;4.60;;;10.60;99.90;;;;;;5116713;28;20169;-57
2023/12/27 10:58:40;;;;;;;9.40;4.65;;;10.60;99.90;;;;;;5116524;28;20530;-58
2023/12/27 11:01:07;;;;;;;9.63;4.68;;;10.60;99.90;;;;;;5117142;28;20234;-58
2023/12/27 11:03:34;;;;;;;6.45;4.22;;;10.60;99.90;;;;;;5116521;28;20208;-59
2023/12/27 11:06:01;;;;;;;7.70;4.43;;;10.50;99.90;;;;;;5115380;28;20590;-59
2023/12/27 11:08:29;;;;;;;6.90;4.47;;;10.50;99.90;;;;;;5116390;28;20244;-58
2023/12/27 11:10:57;;;;;;;5.10;4.20;;;10.50;99.90;;;;;;5116582;28;20184;-58
2023/12/27 11:13:25;;;;;;;7.63;4.35;;;10.60;99.90;;;;;;5116493;28;20181;-58
2023/12/27 11:15:53;;;;;;;6.10;4.55;;;10.60;99.90;;;;;;5116446;28;20321;-58
2023/12/27 11:18:21;;;;;;;7.72;4.50;;;10.60;99.90;;;;;;5116458;28;20177;-57
2023/12/27 11:20:50;;;;;;;8.45;4.35;;;10.60;99.90;;;;;;5116375;28;20173;-57
2023/12/27 11:23:16;;;;;;;7.63;4.00;;;10.60;99.90;;;;;;5115855;28;20251;-57
2023/12/27 11:25:42;;;;;;;5.68;3.92;;;10.70;99.90;;;;;;5116216;28;20614;-57
2023/12/27 11:28:07;;;;;;;8.15;4.45;;;10.70;99.90;;;;;;5116307;28;20174;-58
2023/12/27 11:30:34;;;;;;;7.57;4.43;;;10.70;99.90;;;;;;5116255;28;20177;-58
2023/12/27 11:33:00;;;;;;;8.98;4.57;;;10.70;99.90;;;;;;5116165;28;20234;-58
2023/12/27 11:35:32;;;;;;;10.63;4.20;;;10.80;99.90;;;;;;5116168;28;20256;-58
2023/12/27 11:38:26;;;;;;;8.98;4.30;;;10.70;99.90;;;;;;5116124;28;20177;-57
2023/12/27 11:40:52;;;;;;;10.60;4.05;;;10.90;99.90;;;;;;5116010;28;20170;-58
2023/12/27 11:43:50;;;;;;;7.70;3.72;;;10.80;99.90;;;;;;5115981;28;20205;-57
2023/12/27 11:46:25;;;;;;;5.93;4.35;;;10.90;99.90;;;;;;5115924;28;20165;-58
2023/12/27 11:48:51;;;;;;;7.45;4.40;;;10.80;99.90;;;;;;5115997;28;20286;-58
2023/12/27 11:51:32;;;;;;;9.45;4.07;;;10.80;99.90;;;;;;5115505;28;20209;-58
2023/12/27 11:53:59;;;;;;;10.38;4.45;;;10.90;99.90;;;;;;5115972;28;20177;-57
2023/12/27 11:56:33;;;;;;;6.10;4.47;;;10.90;99.90;;;;;;5115429;28;20605;-58
2023/12/27 11:59:06;;;;;;;7.43;4.40;;;10.90;99.90;;;;;;5115470;28;20150;-57
2023/12/27 12:01:36;;;;;;;7.00;3.72;;;10.70;99.90;;;;;;5115030;28;20178;-58
2023/12/27 12:04:20;;;;;;;8.15;4.05;;;10.80;99.90;;;;;;5115559;28;20263;-58
2023/12/27 12:06:55;;;;;;;9.95;3.88;;;10.70;99.90;;;;;;5115592;28;20157;-58
2023/12/27 12:09:39;;;;;;;5.85;4.38;;;10.70;99.90;;;;;;5115177;28;20614;-57
2023/12/27 12:12:31;;;;;;;7.22;4.15;;;10.80;99.90;;;;;;5114253;28;20575;-58
2023/12/27 12:14:58;;;;;;;7.47;3.97;;;10.80;99.90;;;;;;5112303;28;20227;-58
2023/12/27 12:17:25;;;;;;;4.90;3.58;;;10.80;99.90;;;;;;5115018;28;20203;-57
2023/12/27 12:19:51;;;;;;;7.82;4.20;;;10.70;99.90;;;;;;5115267;28;20304;-58
2023/12/27 12:22:18;;;;;;;5.68;3.80;;;10.60;99.90;;;;;;5115167;28;20229;-57
2023/12/27 12:24:47;;;;;;;5.82;3.80;;;10.50;99.90;;;;;;5115153;28;20181;-58
2023/12/27 12:27:21;;;;;;;7.20;3.67;;;10.50;99.90;;;;;;5113840;28;20649;-58
2023/12/27 12:29:47;;;;;;;12.15;4.57;;;10.60;99.90;;;;;;5115155;28;20196;-58
2023/12/27 12:32:15;;;;;;;8.13;4.07;;;10.70;99.90;;;;;;5115238;28;20242;-58
2023/12/27 12:34:41;;;;;;;7.97;3.88;;;10.70;99.90;;;;;;5115050;28;20173;-58
2023/12/27 12:37:07;;;;;;;7.95;3.70;;;10.70;99.90;;;;;;5115316;28;20471;-58
2023/12/27 12:39:33;;;;;;;8.23;3.97;;;10.70;99.90;;;;;;5114741;28;20641;-58
2023/12/27 12:41:59;;;;;;;5.72;3.53;;;10.60;99.90;;;;;;5115073;28;20166;-58
2023/12/27 12:44:25;;;;;;;7.25;3.28;;;10.70;99.90;;;;;;5115144;28;20173;-59
2023/12/27 12:46:51;;;;;;;5.47;4.07;;;10.70;99.90;;;;;;5115125;28;20181;-59